Time;durP1;ratioP1;P1;durP2;ratioP2;P2;SDS_P1;SDS_P2;PMS_P1;PMS_P2;Temp;Humidity;BMP_temperature;BMP_pressure;BME280_temperature;BME280_humidity;BME280_pressure;Samples;Min_cycle;Max_cycle;Signal;HPM_P1;HPM_P2
2022/03/08 00:01:46;;;;;;;6.45;5.00;;;6.50;88.30;;;;;;5095209;28;20692;-63
2022/03/08 00:04:13;;;;;;;6.93;5.95;;;6.50;88.50;;;;;;5103217;28;20227;-63
2022/03/08 00:06:40;;;;;;;6.35;4.43;;;6.50;88.60;;;;;;5108581;28;20682;-62
2022/03/08 00:09:07;;;;;;;9.00;6.20;;;6.50;88.80;;;;;;5103783;27;20226;-63
2022/03/08 00:11:33;;;;;;;6.30;5.47;;;6.50;89.10;;;;;;5112880;28;20219;-63
2022/03/08 00:14:00;;;;;;;7.32;6.00;;;6.50;89.10;;;;;;5100978;28;20223;-63
2022/03/08 00:16:28;;;;;;;6.72;5.45;;;6.40;89.20;;;;;;5106122;28;20665;-63
2022/03/08 00:18:55;;;;;;;7.13;4.80;;;6.40;89.40;;;;;;5110071;27;20682;-63
2022/03/08 00:21:22;;;;;;;8.82;5.88;;;6.40;89.60;;;;;;5108805;27;20234;-64
2022/03/08 00:23:49;;;;;;;7.90;5.10;;;6.30;89.80;;;;;;5112474;27;20218;-64
2022/03/08 00:26:16;;;;;;;5.65;5.13;;;6.40;89.80;;;;;;5118994;27;20699;-64
2022/03/08 00:28:43;;;;;;;6.72;5.30;;;6.30;89.80;;;;;;5119790;27;20272;-64
2022/03/08 00:31:10;;;;;;;7.53;5.88;;;6.40;90.00;;;;;;5105584;27;20219;-63
2022/03/08 00:33:38;;;;;;;5.05;4.53;;;6.30;90.10;;;;;;5119567;27;20229;-63
2022/03/08 00:36:06;;;;;;;8.90;5.10;;;6.30;90.20;;;;;;5116503;27;20227;-63
2022/03/08 00:38:33;;;;;;;6.75;6.15;;;6.30;90.30;;;;;;5119276;27;20302;-63
2022/03/08 00:41:00;;;;;;;5.30;4.80;;;6.30;90.50;;;;;;5111364;27;20223;-64
2022/03/08 00:43:27;;;;;;;7.57;4.97;;;6.30;90.60;;;;;;5112450;27;20225;-63
2022/03/08 00:45:54;;;;;;;5.75;4.45;;;6.20;90.60;;;;;;5107802;27;20223;-63
2022/03/08 00:48:21;;;;;;;5.78;4.57;;;6.20;90.70;;;;;;5105338;27;20224;-64
2022/03/08 00:50:49;;;;;;;5.68;4.88;;;6.10;90.80;;;;;;5119623;27;20227;-64
2022/03/08 00:53:16;;;;;;;4.68;4.18;;;6.10;90.90;;;;;;5105117;27;20219;-64
2022/03/08 00:55:43;;;;;;;4.20;3.85;;;6.10;91.00;;;;;;5117318;27;20223;-63
2022/03/08 00:58:10;;;;;;;5.00;4.50;;;6.10;91.10;;;;;;5118638;27;20245;-64
2022/03/08 01:00:39;;;;;;;6.72;4.43;;;6.10;91.10;;;;;;5119335;27;20235;-63
2022/03/08 01:03:06;;;;;;;5.45;4.75;;;6.10;91.20;;;;;;5114789;27;20222;-63
2022/03/08 01:05:33;;;;;;;5.75;5.00;;;6.10;91.20;;;;;;5113823;27;20223;-63
2022/03/08 01:08:03;;;;;;;6.15;5.20;;;6.10;91.30;;;;;;5111532;27;20233;-63
2022/03/08 01:10:31;;;;;;;7.07;4.57;;;6.10;91.40;;;;;;5114257;27;20811;-64
2022/03/08 01:12:59;;;;;;;6.63;4.70;;;6.10;91.40;;;;;;5118964;27;20588;-63
2022/03/08 01:15:26;;;;;;;7.15;5.43;;;6.00;91.40;;;;;;5105345;27;20250;-63
2022/03/08 01:17:55;;;;;;;5.20;4.70;;;6.00;91.40;;;;;;5118868;27;20239;-63
2022/03/08 01:20:22;;;;;;;8.05;5.13;;;6.00;91.50;;;;;;5118875;27;20241;-63
2022/03/08 01:22:49;;;;;;;6.90;5.40;;;6.00;91.60;;;;;;5107265;27;20219;-63
2022/03/08 01:25:20;;;;;;;8.27;5.68;;;6.00;91.70;;;;;;5118072;27;20227;-63
2022/03/08 01:27:47;;;;;;;5.22;4.82;;;6.00;91.80;;;;;;5115797;27;20226;-63
2022/03/08 01:30:16;;;;;;;5.13;4.50;;;6.00;91.80;;;;;;5118768;27;20254;-63
2022/03/08 01:32:43;;;;;;;5.70;4.47;;;5.90;91.90;;;;;;5104406;27;20223;-64
2022/03/08 01:35:11;;;;;;;5.53;4.45;;;5.90;92.00;;;;;;5105309;28;20228;-63
2022/03/08 01:37:38;;;;;;;8.75;4.93;;;5.90;92.10;;;;;;5109026;27;20309;-63
2022/03/08 01:40:07;;;;;;;8.98;5.50;;;5.90;92.20;;;;;;5106183;28;20237;-64
2022/03/08 01:42:35;;;;;;;4.90;4.40;;;5.90;92.20;;;;;;5101678;28;20215;-63
2022/03/08 01:45:03;;;;;;;8.23;5.00;;;5.80;92.20;;;;;;5104358;28;20216;-64
2022/03/08 01:47:30;;;;;;;5.22;4.70;;;5.80;92.40;;;;;;5108724;28;20223;-63
2022/03/08 01:49:57;;;;;;;4.32;3.90;;;5.80;92.50;;;;;;5107253;28;20586;-63
2022/03/08 01:52:29;;;;;;;5.07;4.13;;;5.80;93.00;;;;;;5114362;27;20683;-63
2022/03/08 01:54:56;;;;;;;4.55;4.15;;;5.70;92.70;;;;;;5115408;27;20556;-63
2022/03/08 01:57:25;;;;;;;7.80;4.78;;;5.80;92.80;;;;;;5114976;28;20219;-62
2022/03/08 01:59:54;;;;;;;4.95;4.35;;;5.70;92.80;;;;;;5102902;28;20689;-64
2022/03/08 02:02:21;;;;;;;5.13;4.35;;;5.70;92.80;;;;;;5112046;28;20222;-64
2022/03/08 02:04:49;;;;;;;6.63;4.32;;;5.80;92.80;;;;;;5115253;28;20230;-63
2022/03/08 02:07:15;;;;;;;5.20;4.55;;;5.80;92.90;;;;;;5101305;28;20231;-63
2022/03/08 02:09:42;;;;;;;5.97;5.38;;;5.70;92.90;;;;;;5115317;27;20219;-63
2022/03/08 02:12:10;;;;;;;5.35;4.40;;;5.80;93.00;;;;;;5115225;27;20234;-64
2022/03/08 02:14:37;;;;;;;5.05;4.57;;;5.70;93.00;;;;;;5100998;28;20258;-62
2022/03/08 02:17:06;;;;;;;6.93;5.57;;;5.70;93.00;;;;;;5114547;27;20219;-64
2022/03/08 02:19:37;;;;;;;5.10;4.60;;;5.70;93.00;;;;;;5114698;27;20247;-63
2022/03/08 02:22:05;;;;;;;4.85;4.43;;;5.70;93.10;;;;;;5106243;28;20564;-63
2022/03/08 02:24:32;;;;;;;7.40;5.45;;;5.60;93.10;;;;;;5110284;28;20230;-63
2022/03/08 02:27:00;;;;;;;7.20;5.28;;;5.60;93.20;;;;;;5105436;28;20234;-63
2022/03/08 02:29:27;;;;;;;5.97;4.60;;;5.60;93.20;;;;;;5107644;28;20238;-64
2022/03/08 02:31:55;;;;;;;6.35;5.38;;;5.60;93.30;;;;;;5104545;28;20223;-63
2022/03/08 02:34:22;;;;;;;6.63;5.45;;;5.60;93.30;;;;;;5100700;28;20611;-64
2022/03/08 02:37:00;;;;;;;6.43;5.20;;;5.60;93.40;;;;;;5104165;28;20228;-63
2022/03/08 02:39:28;;;;;;;4.82;4.30;;;5.50;93.40;;;;;;5107539;28;20231;-64
2022/03/08 02:41:55;;;;;;;4.65;4.25;;;5.50;93.50;;;;;;5112494;27;20227;-63
2022/03/08 02:44:22;;;;;;;6.53;5.80;;;5.50;93.60;;;;;;5107165;28;20224;-63
2022/03/08 02:46:49;;;;;;;5.32;4.82;;;5.50;93.70;;;;;;5107399;28;20444;-63
2022/03/08 02:49:16;;;;;;;5.60;4.95;;;5.50;93.90;;;;;;5100048;27;20227;-63
2022/03/08 02:51:43;;;;;;;5.63;4.47;;;5.40;93.80;;;;;;5112498;28;20234;-63
2022/03/08 02:54:09;;;;;;;6.88;4.15;;;5.40;93.90;;;;;;5098997;28;20211;-63
2022/03/08 02:56:38;;;;;;;4.35;3.95;;;5.40;93.90;;;;;;5113888;27;20229;-63
2022/03/08 02:59:06;;;;;;;7.32;4.43;;;5.30;94.00;;;;;;5108140;28;20234;-63
2022/03/08 03:01:33;;;;;;;8.18;5.53;;;5.40;94.00;;;;;;5104663;27;20247;-63
2022/03/08 03:03:59;;;;;;;6.25;4.90;;;5.30;94.00;;;;;;5100500;28;20238;-63
2022/03/08 03:06:26;;;;;;;4.50;4.10;;;5.30;94.10;;;;;;5113808;28;20238;-63
2022/03/08 03:08:53;;;;;;;4.68;4.28;;;5.30;94.20;;;;;;5100670;28;20218;-63
2022/03/08 03:11:20;;;;;;;6.25;5.60;;;5.30;94.20;;;;;;5112873;27;20223;-63
2022/03/08 03:13:48;;;;;;;5.18;4.43;;;5.30;94.30;;;;;;5113971;28;20685;-63
2022/03/08 03:16:15;;;;;;;7.60;4.65;;;5.30;94.40;;;;;;5113081;28;20219;-63
2022/03/08 03:18:42;;;;;;;6.57;4.80;;;5.30;94.50;;;;;;5105805;27;20223;-63
2022/03/08 03:21:08;;;;;;;9.43;5.07;;;5.30;94.40;;;;;;5112817;28;20231;-63
2022/03/08 03:23:35;;;;;;;6.22;4.80;;;5.30;94.50;;;;;;5102462;28;20230;-63
2022/03/08 03:26:02;;;;;;;10.05;4.65;;;5.20;94.60;;;;;;5112072;28;20221;-62
2022/03/08 03:28:29;;;;;;;7.03;5.63;;;5.20;94.60;;;;;;5101978;28;20219;-65
2022/03/08 03:30:57;;;;;;;8.55;5.57;;;5.20;94.70;;;;;;5099922;28;20227;-63
2022/03/08 03:33:24;;;;;;;8.15;5.70;;;5.20;94.70;;;;;;5103756;28;20230;-63
2022/03/08 03:35:51;;;;;;;5.75;4.72;;;5.20;94.70;;;;;;5106912;28;20235;-63
2022/03/08 03:38:17;;;;;;;9.32;5.20;;;5.20;94.80;;;;;;5103002;28;20219;-64
2022/03/08 03:40:44;;;;;;;6.05;5.38;;;5.10;94.60;;;;;;5099570;28;20572;-64
2022/03/08 03:43:12;;;;;;;6.30;4.43;;;5.10;94.80;;;;;;5102680;28;20224;-63
2022/03/08 03:45:39;;;;;;;6.50;5.63;;;5.10;94.80;;;;;;5105958;28;20223;-64
2022/03/08 03:48:07;;;;;;;8.55;5.47;;;5.10;94.60;;;;;;5104423;28;20223;-64
2022/03/08 03:50:34;;;;;;;8.27;6.10;;;5.10;94.70;;;;;;5111649;28;20258;-63
2022/03/08 03:53:01;;;;;;;8.35;5.78;;;5.10;94.80;;;;;;5101525;28;20223;-64
2022/03/08 03:55:29;;;;;;;6.00;5.40;;;5.00;94.70;;;;;;5110826;27;20242;-63
2022/03/08 03:57:56;;;;;;;8.00;5.25;;;5.00;94.80;;;;;;5112967;28;20225;-64
2022/03/08 04:00:22;;;;;;;6.35;5.45;;;5.00;94.80;;;;;;5099079;28;20222;-63
2022/03/08 04:02:49;;;;;;;5.88;5.28;;;5.00;94.80;;;;;;5110586;28;20702;-63
2022/03/08 04:05:18;;;;;;;5.93;5.43;;;5.00;94.80;;;;;;5109349;28;20227;-64
2022/03/08 04:07:45;;;;;;;5.85;5.28;;;5.00;94.70;;;;;;5100019;27;20548;-64
2022/03/08 04:10:14;;;;;;;7.85;5.22;;;5.00;94.60;;;;;;5112860;27;20238;-64
2022/03/08 04:12:41;;;;;;;6.97;5.15;;;5.00;94.60;;;;;;5112485;27;20218;-63
2022/03/08 04:15:11;;;;;;;8.68;5.38;;;5.00;94.70;;;;;;5112837;28;20223;-64
2022/03/08 04:17:38;;;;;;;5.13;4.63;;;5.00;94.50;;;;;;5112482;27;20564;-63
2022/03/08 04:20:07;;;;;;;6.75;5.20;;;5.00;94.50;;;;;;5112704;28;20218;-63
2022/03/08 04:22:35;;;;;;;6.53;5.07;;;5.00;94.50;;;;;;5098776;28;20238;-63
2022/03/08 04:25:02;;;;;;;5.57;4.65;;;5.00;94.60;;;;;;5107424;28;20218;-63
2022/03/08 04:27:29;;;;;;;7.47;5.57;;;4.90;94.60;;;;;;5109826;28;20219;-63
2022/03/08 04:29:56;;;;;;;5.32;4.82;;;4.90;94.70;;;;;;5102430;28;20227;-64
2022/03/08 04:32:22;;;;;;;6.90;5.55;;;4.90;94.80;;;;;;5099604;28;20231;-64
2022/03/08 04:34:49;;;;;;;6.00;5.50;;;4.90;94.80;;;;;;5102538;28;20915;-63
2022/03/08 04:37:17;;;;;;;6.18;5.13;;;4.90;94.70;;;;;;5105935;28;20223;-64
2022/03/08 04:39:45;;;;;;;7.78;5.40;;;5.00;94.80;;;;;;5102716;28;20227;-63
2022/03/08 04:42:12;;;;;;;6.55;5.93;;;5.00;94.80;;;;;;5110996;27;20681;-63
2022/03/08 04:44:39;;;;;;;9.50;5.43;;;4.90;94.80;;;;;;5112532;28;20223;-63
2022/03/08 04:47:06;;;;;;;7.28;5.10;;;4.90;94.80;;;;;;5099187;28;20684;-64
2022/03/08 04:49:33;;;;;;;5.88;4.50;;;4.90;94.70;;;;;;5100661;28;20227;-63
2022/03/08 04:52:00;;;;;;;6.00;4.95;;;4.90;94.70;;;;;;5110691;28;20569;-63
2022/03/08 04:54:27;;;;;;;5.43;4.93;;;4.90;94.80;;;;;;5100263;28;20220;-63
2022/03/08 04:56:55;;;;;;;6.00;3.95;;;4.90;94.60;;;;;;5105771;28;20219;-63
2022/03/08 04:59:22;;;;;;;7.22;5.40;;;4.90;94.60;;;;;;5104983;28;20231;-63
2022/03/08 05:01:49;;;;;;;6.18;5.57;;;4.90;94.60;;;;;;5111322;27;20242;-63
2022/03/08 05:04:16;;;;;;;6.25;5.65;;;4.90;94.70;;;;;;5112553;28;20280;-63
2022/03/08 05:06:43;;;;;;;5.38;4.88;;;4.90;94.50;;;;;;5109502;27;20230;-63
2022/03/08 05:09:10;;;;;;;8.23;5.60;;;4.90;94.50;;;;;;5116436;27;20227;-63
2022/03/08 05:11:38;;;;;;;8.82;5.88;;;4.90;94.50;;;;;;5113575;27;20249;-63
2022/03/08 05:14:09;;;;;;;6.82;5.75;;;4.90;94.40;;;;;;5105666;27;20216;-63
2022/03/08 05:16:36;;;;;;;6.20;5.50;;;4.80;94.50;;;;;;5115746;27;20230;-64
2022/03/08 05:19:03;;;;;;;9.55;5.32;;;4.80;94.70;;;;;;5115945;27;20234;-63
2022/03/08 05:21:29;;;;;;;7.63;6.15;;;4.80;94.70;;;;;;5112146;28;20228;-63
2022/03/08 05:23:56;;;;;;;7.40;5.47;;;4.80;94.70;;;;;;5108025;27;20215;-63
2022/03/08 05:26:23;;;;;;;6.20;5.60;;;4.80;94.60;;;;;;5111744;27;20224;-63
2022/03/08 05:28:50;;;;;;;5.00;4.35;;;4.70;94.50;;;;;;5106772;28;20223;-63
2022/03/08 05:31:18;;;;;;;5.75;5.15;;;4.80;94.60;;;;;;5111231;27;20227;-63
2022/03/08 05:33:45;;;;;;;5.50;5.00;;;4.80;94.50;;;;;;5107055;28;20223;-64
2022/03/08 05:36:11;;;;;;;5.80;5.07;;;4.80;94.40;;;;;;5102247;28;20219;-63
2022/03/08 05:38:38;;;;;;;5.55;5.05;;;4.70;94.40;;;;;;5103173;28;20230;-63
2022/03/08 05:41:09;;;;;;;6.38;5.30;;;4.70;94.40;;;;;;5112879;28;20215;-63
2022/03/08 05:43:35;;;;;;;6.38;5.40;;;4.70;94.40;;;;;;5115518;27;20613;-64
2022/03/08 05:46:02;;;;;;;6.97;4.88;;;4.70;94.40;;;;;;5109585;28;20224;-64
2022/03/08 05:48:30;;;;;;;5.00;4.60;;;4.70;94.30;;;;;;5108424;28;20250;-64
2022/03/08 05:50:57;;;;;;;6.20;5.13;;;4.80;94.30;;;;;;5101434;28;20223;-63
2022/03/08 05:53:24;;;;;;;6.32;4.90;;;4.70;94.20;;;;;;5101992;28;20309;-64
2022/03/08 05:55:51;;;;;;;5.80;5.30;;;4.70;94.30;;;;;;5101937;28;20234;-62
2022/03/08 05:58:18;;;;;;;5.80;5.20;;;4.70;94.30;;;;;;5115384;27;20234;-63
2022/03/08 06:00:47;;;;;;;6.00;5.45;;;4.70;94.30;;;;;;5101825;28;20223;-63
2022/03/08 06:03:14;;;;;;;7.40;6.35;;;4.70;94.20;;;;;;5101558;28;20243;-63
2022/03/08 06:05:42;;;;;;;6.13;5.53;;;4.70;94.20;;;;;;5106838;28;20227;-63
2022/03/08 06:08:09;;;;;;;7.82;6.57;;;4.80;94.30;;;;;;5109673;27;20227;-63
2022/03/08 06:10:36;;;;;;;9.93;6.60;;;4.70;94.30;;;;;;5114925;27;20227;-63
2022/03/08 06:13:03;;;;;;;7.03;6.32;;;4.70;94.40;;;;;;5114760;28;20219;-63
2022/03/08 06:15:30;;;;;;;8.85;6.85;;;4.80;94.40;;;;;;5115032;27;20219;-63
2022/03/08 06:17:57;;;;;;;7.03;6.25;;;4.70;94.40;;;;;;5114715;28;20223;-63
2022/03/08 06:20:24;;;;;;;8.50;5.95;;;4.70;94.50;;;;;;5112038;28;20653;-64
2022/03/08 06:22:53;;;;;;;8.93;6.40;;;4.70;94.50;;;;;;5102952;27;20215;-64
2022/03/08 06:25:21;;;;;;;8.90;5.70;;;4.80;94.50;;;;;;5115050;28;20677;-64
2022/03/08 06:27:48;;;;;;;7.60;6.65;;;4.80;94.50;;;;;;5111450;28;20226;-64
2022/03/08 06:30:15;;;;;;;7.82;6.88;;;4.80;94.50;;;;;;5111566;27;20231;-63
2022/03/08 06:32:42;;;;;;;7.70;5.55;;;4.80;94.50;;;;;;5104387;28;20668;-63
2022/03/08 06:35:10;;;;;;;8.55;6.45;;;4.80;94.50;;;;;;5101339;28;20223;-63
2022/03/08 06:37:37;;;;;;;6.28;5.68;;;4.80;94.60;;;;;;5103392;28;20250;-63
2022/03/08 06:40:07;;;;;;;8.43;7.53;;;4.90;94.60;;;;;;5107875;28;20234;-63
2022/03/08 06:42:36;;;;;;;9.43;6.22;;;4.90;94.60;;;;;;5105868;27;20284;-64
2022/03/08 06:45:04;;;;;;;7.68;7.05;;;4.90;94.70;;;;;;5100542;28;20285;-64
2022/03/08 06:47:31;;;;;;;8.32;6.80;;;4.90;94.70;;;;;;5102552;28;20234;-63
2022/03/08 06:50:00;;;;;;;6.88;6.18;;;5.00;94.80;;;;;;5107266;28;20216;-63
2022/03/08 06:52:26;;;;;;;9.57;6.22;;;5.00;94.70;;;;;;5107022;28;20280;-63
2022/03/08 06:54:53;;;;;;;6.68;5.57;;;5.10;94.70;;;;;;5107373;28;20223;-64
2022/03/08 06:57:21;;;;;;;7.47;6.55;;;5.10;94.60;;;;;;5107784;28;20584;-64
2022/03/08 06:59:48;;;;;;;8.20;6.40;;;5.20;94.60;;;;;;5100672;28;20223;-63
2022/03/08 07:02:15;;;;;;;9.20;7.10;;;5.20;94.60;;;;;;5113570;28;20689;-64
2022/03/08 07:04:42;;;;;;;7.82;7.05;;;5.30;94.50;;;;;;5098862;28;20239;-64
2022/03/08 07:07:09;;;;;;;9.32;7.20;;;5.30;94.50;;;;;;5108456;27;20558;-63
2022/03/08 07:09:36;;;;;;;7.97;7.28;;;5.30;94.40;;;;;;5100600;28;20219;-63
2022/03/08 07:12:03;;;;;;;8.32;7.40;;;5.30;94.40;;;;;;5113677;28;20222;-64
2022/03/08 07:14:31;;;;;;;7.10;6.40;;;5.40;94.50;;;;;;5100124;28;20234;-64
2022/03/08 07:16:58;;;;;;;10.35;7.95;;;5.40;94.50;;;;;;5113208;27;20235;-63
2022/03/08 07:19:25;;;;;;;11.23;7.45;;;5.40;94.50;;;;;;5113860;28;20234;-64
2022/03/08 07:21:51;;;;;;;8.80;7.20;;;5.50;94.60;;;;;;5100099;28;20224;-64
2022/03/08 07:24:19;;;;;;;9.65;8.05;;;5.50;94.60;;;;;;5113845;27;20242;-64
2022/03/08 07:26:46;;;;;;;12.50;9.18;;;5.60;94.60;;;;;;5113209;28;20280;-63
2022/03/08 07:29:13;;;;;;;8.95;8.05;;;5.60;94.50;;;;;;5099384;28;20688;-64
2022/03/08 07:31:42;;;;;;;11.40;9.55;;;5.70;94.90;;;;;;5099100;28;20611;-63
2022/03/08 07:34:08;;;;;;;10.60;9.15;;;5.70;94.50;;;;;;5105693;28;20976;-64
2022/03/08 07:36:37;;;;;;;11.73;10.00;;;5.80;94.50;;;;;;5106911;28;20299;-63
2022/03/08 07:39:04;;;;;;;10.30;9.10;;;5.80;94.50;;;;;;5099268;27;20251;-63
2022/03/08 07:41:31;;;;;;;21.42;14.68;;;5.80;94.50;;;;;;5113039;27;20283;-65
2022/03/08 07:43:57;;;;;;;18.20;11.80;;;5.90;94.50;;;;;;5113281;27;20226;-63
2022/03/08 07:46:25;;;;;;;12.45;9.43;;;5.90;94.60;;;;;;5113690;27;20226;-63
2022/03/08 07:48:53;;;;;;;9.77;8.77;;;6.00;94.70;;;;;;5113135;27;20227;-63
2022/03/08 07:51:20;;;;;;;12.10;8.80;;;6.00;94.70;;;;;;5113677;27;20227;-64
2022/03/08 07:53:46;;;;;;;11.52;8.65;;;6.10;94.70;;;;;;5113141;27;20237;-64
2022/03/08 07:56:13;;;;;;;11.98;7.60;;;6.10;94.70;;;;;;5113699;27;20222;-63
2022/03/08 07:58:40;;;;;;;8.25;7.18;;;6.20;94.70;;;;;;5113580;27;20305;-63
2022/03/08 08:01:07;;;;;;;8.52;7.35;;;6.30;94.60;;;;;;5112880;27;20234;-64
2022/03/08 08:03:34;;;;;;;8.52;7.75;;;6.30;94.50;;;;;;5113522;27;20235;-64
2022/03/08 08:06:02;;;;;;;9.13;7.35;;;6.40;94.50;;;;;;5113047;27;20223;-64
2022/03/08 08:08:29;;;;;;;11.80;8.10;;;6.40;94.40;;;;;;5113262;27;20215;-63
2022/03/08 08:10:56;;;;;;;9.02;7.30;;;6.50;94.40;;;;;;5113063;27;20234;-63
2022/03/08 08:13:23;;;;;;;7.55;6.57;;;6.50;94.30;;;;;;5113145;27;20223;-64
2022/03/08 08:15:49;;;;;;;8.45;7.43;;;6.60;94.20;;;;;;5112782;27;20223;-63
2022/03/08 08:18:16;;;;;;;9.15;7.22;;;6.70;94.00;;;;;;5113460;27;20692;-64
2022/03/08 08:20:43;;;;;;;7.32;6.50;;;6.70;93.90;;;;;;5113003;27;20233;-63
2022/03/08 08:23:11;;;;;;;8.82;6.60;;;6.80;93.70;;;;;;5112683;27;20219;-64
2022/03/08 08:25:38;;;;;;;6.80;5.50;;;6.80;93.60;;;;;;5113470;27;20234;-63
2022/03/08 08:28:05;;;;;;;6.63;6.03;;;6.90;93.40;;;;;;5112884;27;20250;-64
2022/03/08 08:30:33;;;;;;;6.10;5.57;;;7.00;93.40;;;;;;5113007;27;20226;-64
2022/03/08 08:33:00;;;;;;;6.25;5.65;;;7.00;93.20;;;;;;5112795;27;20254;-64
2022/03/08 08:35:27;;;;;;;7.50;5.45;;;7.10;92.90;;;;;;5113173;27;20230;-62
2022/03/08 08:37:54;;;;;;;5.75;4.40;;;7.20;92.70;;;;;;5112564;27;20219;-63
2022/03/08 08:40:22;;;;;;;5.65;4.43;;;7.20;92.50;;;;;;5113168;27;20648;-64
2022/03/08 08:42:49;;;;;;;4.43;4.00;;;7.30;92.20;;;;;;5114462;27;20222;-64
2022/03/08 08:45:16;;;;;;;6.82;4.15;;;7.30;91.90;;;;;;5117519;27;20227;-64
2022/03/08 08:47:43;;;;;;;6.43;4.20;;;7.40;91.70;;;;;;5117127;27;20223;-64
2022/03/08 08:50:10;;;;;;;5.40;4.85;;;7.50;91.50;;;;;;5116614;27;20241;-64
2022/03/08 08:52:37;;;;;;;6.82;4.55;;;7.50;90.90;;;;;;5117288;27;20223;-64
2022/03/08 08:55:05;;;;;;;6.45;4.53;;;7.60;90.90;;;;;;5116626;27;20214;-64
2022/03/08 08:57:33;;;;;;;6.00;4.93;;;7.60;90.80;;;;;;5117059;27;20223;-64
2022/03/08 09:00:00;;;;;;;8.93;5.60;;;7.70;90.60;;;;;;5116402;27;20743;-63
2022/03/08 09:02:27;;;;;;;6.13;5.43;;;7.70;90.30;;;;;;5116865;27;20227;-63
2022/03/08 09:04:53;;;;;;;8.02;5.53;;;7.80;90.30;;;;;;5116255;27;20355;-63
2022/03/08 09:07:20;;;;;;;8.63;5.53;;;7.80;90.10;;;;;;5116953;27;20219;-63
2022/03/08 09:09:49;;;;;;;6.45;5.25;;;7.90;90.00;;;;;;5116753;27;20696;-62
2022/03/08 09:12:15;;;;;;;5.97;5.38;;;7.90;90.10;;;;;;5116325;27;20253;-63
2022/03/08 09:14:44;;;;;;;9.00;6.45;;;8.00;90.10;;;;;;5116616;27;20214;-63
2022/03/08 09:17:11;;;;;;;7.05;5.55;;;8.10;89.50;;;;;;5116159;27;20227;-63
2022/03/08 09:19:37;;;;;;;8.20;5.57;;;8.10;89.30;;;;;;5116585;27;20219;-62
2022/03/08 09:22:05;;;;;;;6.25;5.65;;;8.20;89.30;;;;;;5116015;27;20241;-63
2022/03/08 09:24:35;;;;;;;6.30;5.70;;;8.20;89.10;;;;;;5116675;27;20261;-64
2022/03/08 09:27:02;;;;;;;6.28;5.65;;;8.30;88.80;;;;;;5116121;27;20276;-63
2022/03/08 09:29:29;;;;;;;9.50;7.18;;;8.30;88.20;;;;;;5116541;27;20246;-64
2022/03/08 09:31:57;;;;;;;9.73;7.63;;;8.40;87.60;;;;;;5115765;27;20227;-63
2022/03/08 09:34:24;;;;;;;20.23;17.58;;;8.40;87.30;;;;;;5116499;27;20541;-64
2022/03/08 09:36:51;;;;;;;22.92;19.95;;;8.50;87.50;;;;;;5116112;27;20223;-63
2022/03/08 09:39:18;;;;;;;24.33;21.83;;;8.50;87.30;;;;;;5115866;27;20219;-62
2022/03/08 09:41:45;;;;;;;11.98;10.68;;;8.60;87.30;;;;;;5116119;27;20233;-64
2022/03/08 09:44:13;;;;;;;9.93;8.65;;;8.70;86.80;;;;;;5115768;27;20700;-64
2022/03/08 09:46:40;;;;;;;11.45;10.25;;;8.70;86.90;;;;;;5116069;27;20685;-64
2022/03/08 09:49:08;;;;;;;9.40;7.50;;;8.70;86.60;;;;;;5115515;27;20219;-63
2022/03/08 09:51:38;;;;;;;9.30;8.35;;;8.80;85.60;;;;;;5115940;27;20223;-64
2022/03/08 09:54:06;;;;;;;10.20;7.82;;;8.90;85.70;;;;;;5114034;27;20680;-63
2022/03/08 09:56:33;;;;;;;8.13;7.32;;;8.90;85.20;;;;;;5116050;27;20246;-64
2022/03/08 09:59:00;;;;;;;7.20;6.60;;;9.00;85.10;;;;;;5115391;27;20215;-63
2022/03/08 10:01:27;;;;;;;6.43;5.80;;;9.00;84.90;;;;;;5115684;27;20231;-65
2022/03/08 10:03:54;;;;;;;5.63;5.13;;;9.10;84.50;;;;;;5115800;27;20688;-63
2022/03/08 10:06:22;;;;;;;5.35;4.50;;;9.10;83.20;;;;;;5115413;27;20956;-63
2022/03/08 10:08:49;;;;;;;5.40;4.95;;;9.20;82.70;;;;;;5115721;27;20218;-63
2022/03/08 10:11:18;;;;;;;5.70;5.20;;;9.20;81.80;;;;;;5115156;27;20215;-64
2022/03/08 10:13:48;;;;;;;5.65;5.15;;;9.30;81.30;;;;;;5115525;27;20215;-63
2022/03/08 10:16:17;;;;;;;4.93;4.53;;;9.30;81.20;;;;;;5115085;27;20219;-63
2022/03/08 10:18:46;;;;;;;6.10;5.53;;;9.40;81.10;;;;;;5115702;27;20578;-63
2022/03/08 10:21:42;;;;;;;6.53;5.57;;;9.40;80.80;;;;;;5114919;27;20239;-62
2022/03/08 10:26:57;;;;;;;5.03;4.53;;;9.50;79.70;;;;;;5091944;27;20239;-63
2022/03/08 10:29:26;;;;;;;4.70;4.15;;;9.50;79.60;;;;;;5115088;27;20237;-63
2022/03/08 10:32:05;;;;;;;4.40;3.97;;;9.60;79.50;;;;;;5115047;27;20234;-63
2022/03/08 10:34:33;;;;;;;4.32;3.92;;;9.70;78.30;;;;;;5114858;27;20289;-63
2022/03/08 10:37:06;;;;;;;4.30;3.90;;;9.70;77.60;;;;;;5115106;27;20238;-64
2022/03/08 10:39:33;;;;;;;4.93;4.30;;;9.70;77.30;;;;;;5114772;27;20223;-64
2022/03/08 10:42:00;;;;;;;6.70;5.00;;;9.80;76.60;;;;;;5114712;27;20235;-63
2022/03/08 10:44:33;;;;;;;3.88;3.50;;;9.80;76.60;;;;;;5114669;27;20227;-64
2022/03/08 10:47:01;;;;;;;5.05;4.40;;;9.90;76.90;;;;;;5115006;27;20233;-64
2022/03/08 10:49:28;;;;;;;4.13;3.72;;;9.90;76.90;;;;;;5114490;27;20219;-64
2022/03/08 10:52:05;;;;;;;5.35;3.70;;;9.90;76.70;;;;;;5114616;27;20237;-65
2022/03/08 10:54:33;;;;;;;3.75;3.38;;;9.90;76.80;;;;;;5114278;27;20549;-64
2022/03/08 10:57:00;;;;;;;4.50;4.05;;;10.00;75.90;;;;;;5114669;27;20223;-64
2022/03/08 10:59:27;;;;;;;4.32;3.60;;;10.00;75.90;;;;;;5114349;27;20227;-64
2022/03/08 11:01:54;;;;;;;4.47;3.80;;;10.10;75.70;;;;;;5114431;27;20542;-64
2022/03/08 11:04:22;;;;;;;5.22;3.55;;;10.10;75.70;;;;;;5114033;27;20310;-64
2022/03/08 11:06:52;;;;;;;4.68;4.00;;;10.10;75.70;;;;;;5114255;27;20215;-64
2022/03/08 11:09:21;;;;;;;4.18;3.75;;;10.20;75.40;;;;;;5114248;27;20223;-64
2022/03/08 11:11:48;;;;;;;4.10;3.70;;;10.20;74.70;;;;;;5114435;27;20235;-64
2022/03/08 11:14:15;;;;;;;5.60;4.32;;;10.30;74.70;;;;;;5113938;27;20219;-64
2022/03/08 11:16:43;;;;;;;4.93;3.80;;;10.40;73.50;;;;;;5114347;27;20557;-64
2022/03/08 11:19:12;;;;;;;3.38;3.08;;;10.40;73.40;;;;;;5114175;27;20688;-64
2022/03/08 11:21:39;;;;;;;3.33;3.00;;;10.40;73.50;;;;;;5113961;27;20218;-64
2022/03/08 11:24:06;;;;;;;4.82;4.07;;;10.50;73.60;;;;;;5114034;27;20229;-64
2022/03/08 11:26:34;;;;;;;5.18;4.68;;;10.50;73.30;;;;;;5113439;27;20694;-65
2022/03/08 11:29:03;;;;;;;5.40;4.82;;;10.60;73.20;;;;;;5114326;27;20223;-64
2022/03/08 11:31:34;;;;;;;4.97;4.07;;;10.60;73.00;;;;;;5113529;27;20223;-64
2022/03/08 11:34:08;;;;;;;5.35;4.15;;;10.60;73.00;;;;;;5113956;27;20230;-64
2022/03/08 11:36:38;;;;;;;4.25;3.30;;;10.70;72.80;;;;;;5113551;27;20226;-64
2022/03/08 11:39:23;;;;;;;4.53;4.10;;;10.70;72.50;;;;;;5113954;27;20219;-64
2022/03/08 11:41:53;;;;;;;3.50;3.20;;;10.80;72.60;;;;;;5113433;27;20229;-64
2022/03/08 11:44:29;;;;;;;5.38;4.90;;;10.80;72.80;;;;;;5113919;27;20570;-64
2022/03/08 11:47:07;;;;;;;22.08;20.17;;;10.80;72.20;;;;;;5113623;27;20214;-64
2022/03/08 11:49:52;;;;;;;13.80;12.50;;;10.90;71.20;;;;;;5113303;27;20542;-63
2022/03/08 11:52:21;;;;;;;6.63;6.03;;;10.90;71.10;;;;;;5113443;27;20227;-64
2022/03/08 11:54:56;;;;;;;6.18;5.55;;;10.90;70.40;;;;;;5113343;27;20223;-64
2022/03/08 11:57:54;;;;;;;7.15;5.25;;;10.90;69.90;;;;;;5113601;27;20603;-63
2022/03/08 12:00:22;;;;;;;5.30;4.80;;;11.00;69.30;;;;;;5113419;27;20227;-63
2022/03/08 12:02:52;;;;;;;7.90;5.00;;;11.00;69.10;;;;;;5113459;27;20250;-63
2022/03/08 12:05:58;;;;;;;5.57;4.00;;;11.00;69.00;;;;;;5113063;27;20223;-64
2022/03/08 12:09:01;;;;;;;3.35;3.05;;;11.00;68.60;;;;;;5109589;27;20227;-63
2022/03/08 12:11:39;;;;;;;3.80;3.47;;;11.10;67.50;;;;;;5112945;27;20233;-63
2022/03/08 12:14:10;;;;;;;4.10;3.40;;;11.10;67.20;;;;;;5113413;27;20230;-64
2022/03/08 12:16:39;;;;;;;3.50;3.10;;;11.10;67.30;;;;;;5112365;27;20223;-64
2022/03/08 12:19:07;;;;;;;2.80;2.60;;;11.10;67.30;;;;;;5113364;27;20619;-64
2022/03/08 12:21:40;;;;;;;4.35;2.90;;;11.20;67.40;;;;;;5112723;27;20301;-63
2022/03/08 12:24:13;;;;;;;10.02;3.45;;;11.20;67.30;;;;;;5113246;27;20325;-64
2022/03/08 12:26:41;;;;;;;4.03;3.30;;;11.30;67.30;;;;;;5112954;27;21010;-63
2022/03/08 12:29:12;;;;;;;3.70;3.10;;;11.30;67.30;;;;;;5113258;27;20231;-64
2022/03/08 12:32:11;;;;;;;5.60;3.55;;;11.30;67.30;;;;;;5112672;27;20288;-64
2022/03/08 12:34:40;;;;;;;3.67;2.90;;;11.40;67.50;;;;;;5112833;27;20223;-64
2022/03/08 12:37:09;;;;;;;3.47;2.50;;;11.40;67.30;;;;;;5113106;27;20215;-64
2022/03/08 12:39:53;;;;;;;3.28;2.67;;;11.40;67.30;;;;;;5112633;27;20580;-64
2022/03/08 12:42:23;;;;;;;3.30;2.97;;;11.40;67.00;;;;;;5112698;27;20231;-64
2022/03/08 12:44:57;;;;;;;3.08;2.78;;;11.40;65.70;;;;;;5113132;27;20230;-64
2022/03/08 12:47:28;;;;;;;4.47;2.88;;;11.40;64.30;;;;;;5112728;27;20255;-64
2022/03/08 12:49:56;;;;;;;4.30;4.00;;;11.40;64.00;;;;;;5113057;27;20215;-64
2022/03/08 12:52:23;;;;;;;4.88;4.53;;;11.50;63.90;;;;;;5112590;27;20219;-64
2022/03/08 12:54:53;;;;;;;4.63;4.07;;;11.50;64.70;;;;;;5113048;27;20219;-64
2022/03/08 12:57:21;;;;;;;3.22;2.88;;;11.50;64.60;;;;;;5112593;27;20245;-64
2022/03/08 12:59:50;;;;;;;3.83;3.55;;;11.50;64.10;;;;;;5113071;27;20226;-64
2022/03/08 13:02:19;;;;;;;4.15;3.85;;;11.50;64.00;;;;;;5113036;27;20378;-63
2022/03/08 13:04:48;;;;;;;3.75;2.72;;;11.50;63.90;;;;;;5112446;27;20257;-63